createdAt,value
2023-02-24T00:02:15.035Z,69.97
2023-02-24T00:04:42.204Z,62.20
2023-02-24T00:07:10.876Z,61.80
2023-02-24T00:09:41.388Z,56.97
2023-02-24T00:12:10.723Z,63.23
2023-02-24T00:14:39.348Z,64.53
2023-02-24T00:17:08.260Z,73.30
2023-02-24T00:19:35.345Z,60.50
2023-02-24T00:22:05.305Z,64.23
2023-02-24T00:24:32.057Z,63.60
2023-02-24T00:27:00.089Z,59.23
2023-02-24T00:29:29.586Z,62.07
2023-02-24T00:32:01.158Z,63.80
2023-02-24T00:34:32.097Z,64.40
2023-02-24T00:36:58.971Z,58.80
2023-02-24T00:39:33.585Z,64.80
2023-02-24T00:42:06.674Z,64.40
2023-02-24T00:44:38.152Z,59.80
2023-02-24T00:47:06.530Z,65.70
2023-02-24T00:49:35.999Z,58.23
2023-02-24T00:52:06.688Z,64.23
2023-02-24T00:54:36.447Z,60.37
2023-02-24T00:57:03.340Z,64.97
2023-02-24T00:59:30.163Z,65.53
2023-02-24T01:01:56.966Z,66.63
2023-02-24T01:04:23.803Z,64.10
2023-02-24T01:06:52.341Z,66.97
2023-02-24T01:09:22.379Z,62.27
2023-02-24T01:12:08.338Z,61.07
2023-02-24T01:14:35.742Z,64.60
2023-02-24T01:17:03.253Z,63.20
2023-02-24T01:19:31.941Z,60.07
2023-02-24T01:21:59.343Z,65.00
2023-02-24T01:24:28.659Z,61.63
2023-02-24T01:26:58.049Z,64.70
2023-02-24T01:29:25.985Z,63.47
2023-02-24T01:31:58.523Z,62.37
2023-02-24T01:34:29.215Z,64.40
2023-02-24T01:36:56.017Z,59.53
2023-02-24T01:39:25.997Z,65.00
2023-02-24T01:41:55.601Z,56.63
2023-02-24T01:44:22.473Z,60.20
2023-02-24T01:46:51.240Z,62.97
2023-02-24T01:49:20.292Z,63.53
2023-02-24T01:51:54.827Z,63.30
2023-02-24T01:54:22.910Z,62.63
2023-02-24T01:56:50.059Z,58.90
2023-02-24T01:59:16.886Z,58.40
2023-02-24T02:01:43.817Z,66.60
2023-02-24T02:04:39.764Z,67.20
2023-02-24T02:07:11.500Z,60.87
2023-02-24T02:09:41.685Z,56.87
2023-02-24T02:12:09.536Z,65.37
2023-02-24T02:14:37.160Z,64.47
2023-02-24T02:17:19.881Z,55.57
2023-02-24T02:20:20.097Z,61.63
2023-02-24T02:23:06.701Z,61.47
2023-02-24T02:26:10.950Z,56.23
2023-02-24T02:28:59.015Z,62.83
2023-02-24T02:31:46.682Z,62.40
2023-02-24T02:34:31.464Z,65.70
2023-02-24T02:37:05.827Z,62.70
2023-02-24T02:39:49.405Z,57.50
2023-02-24T02:42:27.789Z,66.13
2023-02-24T02:45:07.807Z,63.73
2023-02-24T02:47:48.058Z,62.33
2023-02-24T02:50:28.062Z,64.27
2023-02-24T02:53:00.910Z,62.33
2023-02-24T02:55:48.348Z,59.10
2023-02-24T02:58:20.474Z,59.90
2023-02-24T03:01:01.783Z,68.27
2023-02-24T03:03:44.111Z,63.37
2023-02-24T03:06:24.732Z,61.87
2023-02-24T03:09:11.454Z,66.37
2023-02-24T03:11:42.594Z,65.20
2023-02-24T03:14:12.194Z,67.03
2023-02-24T03:16:43.294Z,59.50
2023-02-24T03:19:10.574Z,64.17
2023-02-24T03:21:39.854Z,64.83
2023-02-24T03:24:06.996Z,62.57
2023-02-24T03:26:53.997Z,66.40
2023-02-24T03:29:30.556Z,72.57
2023-02-24T03:32:09.615Z,72.37
2023-02-24T03:34:56.959Z,65.53
2023-02-24T03:37:28.033Z,68.90
2023-02-24T03:39:57.869Z,70.13
2023-02-24T03:42:33.870Z,75.27
2023-02-24T03:45:01.213Z,74.13
2023-02-24T03:47:30.351Z,69.50
2023-02-24T03:49:57.425Z,73.47
2023-02-24T03:52:47.263Z,76.17
2023-02-24T03:55:27.960Z,71.83
2023-02-24T03:58:06.916Z,69.43
2023-02-24T04:00:52.248Z,77.40
2023-02-24T04:03:57.690Z,72.47
2023-02-24T04:06:30.932Z,74.17
2023-02-24T04:09:59.311Z,75.90
2023-02-24T04:12:53.731Z,72.53
2023-02-24T04:15:20.590Z,74.93
2023-02-24T04:17:57.534Z,79.50
2023-02-24T04:20:30.893Z,80.97
2023-02-24T04:23:02.336Z,83.87
2023-02-24T04:25:29.112Z,80.73
2023-02-24T04:27:58.451Z,87.30
2023-02-24T04:30:26.959Z,83.20
2023-02-24T04:32:56.588Z,88.60
2023-02-24T04:35:23.614Z,79.30
2023-02-24T04:37:57.870Z,88.40
2023-02-24T04:40:24.677Z,86.00
2023-02-24T04:42:52.732Z,81.80
2023-02-24T04:45:21.659Z,81.83
2023-02-24T04:47:51.395Z,84.60
2023-02-24T04:50:28.445Z,87.63
2023-02-24T04:53:06.603Z,88.90
2023-02-24T04:55:42.365Z,95.40
2023-02-24T04:58:13.257Z,87.63
2023-02-24T05:00:41.698Z,98.33
2023-02-24T05:03:10.988Z,90.70
2023-02-24T05:05:37.968Z,88.90
2023-02-24T05:08:07.163Z,95.63
2023-02-24T05:10:39.488Z,93.53
2023-02-24T05:13:09.264Z,95.57
2023-02-24T05:15:39.512Z,100.37
2023-02-24T05:18:09.284Z,99.13
2023-02-24T05:20:55.628Z,101.33
2023-02-24T05:23:26.712Z,97.33
2023-02-24T05:25:55.034Z,98.80
2023-02-24T05:28:25.432Z,104.73
2023-02-24T05:30:53.990Z,111.13
2023-02-24T05:33:23.733Z,106.87
2023-02-24T05:35:56.351Z,102.10
2023-02-24T05:38:23.129Z,103.70
2023-02-24T05:40:49.921Z,110.07
2023-02-24T05:43:18.754Z,105.77
2023-02-24T05:45:46.280Z,111.17
2023-02-24T05:48:18.949Z,114.33
2023-02-24T05:50:56.440Z,115.97
2023-02-24T05:53:23.640Z,125.30
2023-02-24T05:55:52.638Z,111.97
2023-02-24T05:58:19.521Z,120.40
2023-02-24T06:00:46.561Z,113.03
2023-02-24T06:03:17.609Z,115.73
2023-02-24T06:05:54.914Z,117.50
2023-02-24T06:08:24.408Z,108.50
2023-02-24T06:10:51.656Z,122.87
2023-02-24T06:13:18.472Z,113.00
2023-02-24T06:15:50.507Z,122.37
2023-02-24T06:18:17.549Z,118.57
2023-02-24T06:20:51.293Z,112.80
2023-02-24T06:23:18.156Z,118.80
2023-02-24T06:25:47.439Z,117.93
2023-02-24T06:28:14.184Z,118.47
2023-02-24T06:30:43.411Z,114.30
2023-02-24T06:33:10.715Z,101.33
2023-02-24T06:35:38.913Z,103.33
2023-02-24T06:38:05.684Z,98.50
2023-02-24T06:40:37.834Z,98.77
2023-02-24T06:43:04.680Z,96.77
2023-02-24T06:45:33.917Z,104.80
2023-02-24T06:48:00.752Z,99.10
2023-02-24T06:50:28.849Z,96.60
2023-02-24T06:53:00.736Z,100.63
2023-02-24T06:55:28.493Z,108.50
2023-02-24T06:58:04.708Z,93.70
2023-02-24T07:00:39.074Z,97.07
2023-02-24T07:03:20.992Z,101.03
2023-02-24T07:05:54.288Z,89.07
2023-02-24T07:08:24.320Z,101.40
2023-02-24T07:10:56.013Z,96.87
2023-02-24T07:13:24.513Z,93.53
2023-02-24T07:15:51.740Z,91.60
2023-02-24T07:18:21.407Z,87.47
2023-02-24T07:20:48.273Z,90.60
2023-02-24T07:23:16.039Z,84.33
2023-02-24T07:25:43.483Z,84.43
2023-02-24T07:28:11.072Z,85.87
2023-02-24T07:30:43.759Z,89.93
2023-02-24T07:33:10.686Z,92.80
2023-02-24T07:35:41.507Z,90.07
2023-02-24T07:38:08.523Z,85.77
2023-02-24T07:40:36.433Z,84.67
2023-02-24T07:43:06.165Z,88.30
2023-02-24T07:45:32.983Z,82.80
2023-02-24T07:48:01.709Z,75.03
2023-02-24T07:50:32.773Z,79.90
2023-02-24T07:52:59.746Z,83.20
2023-02-24T07:55:31.400Z,79.47
2023-02-24T07:57:58.504Z,77.33
2023-02-24T08:00:28.360Z,84.03
2023-02-24T08:02:56.215Z,81.57
2023-02-24T08:05:24.577Z,85.80
2023-02-24T08:07:57.086Z,82.80
2023-02-24T08:10:26.761Z,78.53
2023-02-24T08:12:55.196Z,79.67
2023-02-24T08:15:34.145Z,72.53
2023-02-24T08:18:01.567Z,79.37
2023-02-24T08:20:52.217Z,70.00
2023-02-24T08:23:23.631Z,76.03
2023-02-24T08:25:53.785Z,74.80
2023-02-24T08:28:26.934Z,73.47
2023-02-24T08:30:53.863Z,82.70
2023-02-24T08:33:22.331Z,83.67
2023-02-24T08:35:53.084Z,74.00
2023-02-24T08:38:20.839Z,72.50
2023-02-24T08:40:54.466Z,69.67
2023-02-24T08:43:32.928Z,71.20
2023-02-24T08:46:03.655Z,66.80
2023-02-24T08:48:37.551Z,63.90
2023-02-24T08:51:06.096Z,65.57
2023-02-24T08:53:32.837Z,67.70
2023-02-24T08:56:00.835Z,66.87
2023-02-24T08:58:27.639Z,64.30
2023-02-24T09:00:59.365Z,53.20
2023-02-24T09:03:29.461Z,54.50
2023-02-24T09:05:59.689Z,55.37
2023-02-24T09:08:32.634Z,52.87
2023-02-24T09:11:07.861Z,52.10
2023-02-24T09:13:43.109Z,55.23
2023-02-24T09:16:16.493Z,54.73
2023-02-24T09:18:43.495Z,51.57
2023-02-24T09:21:36.924Z,50.20
2023-02-24T09:24:07.335Z,53.17
2023-02-24T09:26:43.480Z,50.53
2023-02-24T09:29:31.347Z,46.63
2023-02-24T09:32:07.620Z,45.83
2023-02-24T09:34:35.632Z,48.80
2023-02-24T09:37:03.410Z,49.43
2023-02-24T09:39:53.064Z,49.60
2023-02-24T09:42:20.978Z,46.57
2023-02-24T09:44:55.794Z,43.07
2023-02-24T09:47:39.682Z,49.93
2023-02-24T09:50:14.221Z,48.73
2023-02-24T09:52:41.124Z,50.97
2023-02-24T09:55:25.859Z,48.47
2023-02-24T09:58:19.009Z,44.70
2023-02-24T10:01:31.026Z,51.77
2023-02-24T10:04:20.108Z,49.07
2023-02-24T10:06:57.785Z,57.17
2023-02-24T10:09:43.335Z,54.17
2023-02-24T10:12:17.222Z,50.27
2023-02-24T10:15:17.614Z,48.47
2023-02-24T10:17:50.055Z,50.83
2023-02-24T10:20:40.967Z,51.00
2023-02-24T10:23:35.532Z,50.07
2023-02-24T10:26:07.891Z,51.13
2023-02-24T10:28:53.739Z,53.13
2023-02-24T10:31:57.824Z,50.50
2023-02-24T10:34:31.979Z,47.37
2023-02-24T10:37:07.737Z,48.40
2023-02-24T10:39:34.590Z,41.93
2023-02-24T10:42:19.664Z,41.63
2023-02-24T10:45:01.367Z,41.23
2023-02-24T10:47:31.697Z,41.97
2023-02-24T10:49:59.893Z,33.47
2023-02-24T10:52:58.393Z,34.17
2023-02-24T10:55:50.704Z,28.90
2023-02-24T10:58:44.962Z,28.77
2023-02-24T11:01:49.288Z,27.90
2023-02-24T11:04:33.179Z,23.87
2023-02-24T11:07:12.475Z,19.30
2023-02-24T11:09:45.632Z,20.37
2023-02-24T11:12:51.672Z,19.53
2023-02-24T11:15:39.970Z,20.53
2023-02-24T11:18:08.782Z,19.67
2023-02-24T11:20:56.246Z,22.70
2023-02-24T11:23:29.124Z,21.07
2023-02-24T11:26:04.676Z,23.13
2023-02-24T11:29:15.374Z,26.37
2023-02-24T11:31:56.029Z,29.27
2023-02-24T11:34:49.641Z,22.97
2023-02-24T11:37:27.120Z,24.57
2023-02-24T11:40:15.916Z,29.13
2023-02-24T11:42:48.971Z,27.93
2023-02-24T11:45:35.358Z,24.83
2023-02-24T11:48:05.291Z,27.17
2023-02-24T11:50:50.954Z,22.30
2023-02-24T11:53:33.143Z,25.00
2023-02-24T11:56:11.062Z,26.40
2023-02-24T11:59:03.970Z,27.17
2023-02-24T12:01:41.041Z,31.27
2023-02-24T12:04:18.763Z,30.80
2023-02-24T12:06:58.777Z,32.30
2023-02-24T12:09:30.605Z,37.97
2023-02-24T12:12:04.798Z,32.47
2023-02-24T12:14:54.041Z,30.03
2023-02-24T12:17:41.783Z,32.50
2023-02-24T12:20:45.373Z,29.07
2023-02-24T12:23:31.243Z,32.37
2023-02-24T12:26:09.108Z,29.03
2023-02-24T12:28:53.686Z,28.57
2023-02-24T12:31:37.576Z,25.73
2023-02-24T12:34:36.427Z,28.47
2023-02-24T12:37:40.495Z,27.60
2023-02-24T12:40:31.134Z,24.93
2023-02-24T12:43:02.289Z,28.43
2023-02-24T12:45:38.636Z,26.57
2023-02-24T12:48:23.647Z,25.90
2023-02-24T12:50:50.385Z,23.97
2023-02-24T12:53:41.472Z,27.77
2023-02-24T12:56:24.264Z,26.20
2023-02-24T12:58:56.767Z,22.97
2023-02-24T13:01:40.176Z,25.57
2023-02-24T13:04:28.146Z,24.47
2023-02-24T13:07:29.006Z,21.17
2023-02-24T13:10:19.077Z,23.33
2023-02-24T13:12:55.788Z,24.30
2023-02-24T13:15:27.427Z,25.23
2023-02-24T13:17:57.676Z,24.97
2023-02-24T13:20:37.298Z,23.47
2023-02-24T13:23:17.300Z,24.63
2023-02-24T13:25:52.858Z,22.13
2023-02-24T13:28:36.144Z,23.97
2023-02-24T13:31:07.714Z,26.67
2023-02-24T13:33:41.972Z,23.63
2023-02-24T13:36:08.932Z,23.17
2023-02-24T13:39:20.597Z,25.87
2023-02-24T13:41:49.559Z,29.27
2023-02-24T13:44:19.939Z,29.80
2023-02-24T13:46:46.719Z,26.17
2023-02-24T13:49:35.887Z,24.27
2023-02-24T13:52:15.751Z,25.23
2023-02-24T13:54:45.482Z,26.23
2023-02-24T13:57:12.270Z,25.80
2023-02-24T14:00:10.085Z,25.20
2023-02-24T14:02:41.508Z,28.60
2023-02-24T14:05:27.467Z,28.03
2023-02-24T14:07:54.584Z,27.73
2023-02-24T14:10:26.687Z,30.00
2023-02-24T14:13:07.328Z,28.50
2023-02-24T14:15:34.283Z,28.00
2023-02-24T14:18:05.375Z,26.17
2023-02-24T14:20:33.391Z,26.93
2023-02-24T14:23:01.351Z,28.20
2023-02-24T14:25:30.731Z,26.60
2023-02-24T14:28:02.217Z,24.77
2023-02-24T14:30:35.098Z,27.93
2023-02-24T14:33:02.143Z,27.03
2023-02-24T14:35:37.201Z,25.30
2023-02-24T14:38:03.983Z,27.20
2023-02-24T14:40:30.941Z,27.27
2023-02-24T14:43:00.384Z,29.43
2023-02-24T14:45:28.097Z,26.90
2023-02-24T14:47:55.873Z,26.50
2023-02-24T14:50:29.448Z,29.50
2023-02-24T14:53:01.541Z,32.17
2023-02-24T14:55:39.913Z,29.87
2023-02-24T14:58:14.288Z,25.80
2023-02-24T15:00:48.982Z,29.00
2023-02-24T15:03:40.798Z,29.03
2023-02-24T15:06:15.645Z,30.97
2023-02-24T15:08:49.394Z,25.30
2023-02-24T15:11:16.267Z,26.97
2023-02-24T15:13:57.255Z,26.40
2023-02-24T15:16:32.688Z,32.30
2023-02-24T15:19:03.018Z,29.57
2023-02-24T15:21:37.120Z,30.67
2023-02-24T15:24:18.781Z,29.60
2023-02-24T15:27:03.643Z,38.77
2023-02-24T15:29:33.189Z,32.53
2023-02-24T15:32:04.167Z,33.80
2023-02-24T15:34:34.999Z,31.60
2023-02-24T15:37:04.707Z,29.37
2023-02-24T15:39:33.931Z,32.77
2023-02-24T15:42:08.250Z,28.17
2023-02-24T15:44:35.561Z,26.30
2023-02-24T15:47:46.657Z,29.20
2023-02-24T15:50:14.200Z,24.13
2023-02-24T15:52:40.990Z,24.27
2023-02-24T15:55:11.018Z,23.57
2023-02-24T15:57:37.779Z,23.23
2023-02-24T16:00:13.874Z,23.63
2023-02-24T16:02:41.043Z,28.70
2023-02-24T16:05:14.220Z,22.73
2023-02-24T16:07:41.899Z,23.80
2023-02-24T16:10:17.331Z,23.67
2023-02-24T16:12:51.350Z,26.23
2023-02-24T16:15:43.050Z,28.80
2023-02-24T16:18:22.327Z,37.07
2023-02-24T16:20:58.560Z,26.60
2023-02-24T16:23:28.244Z,19.87
2023-02-24T16:26:00.720Z,23.23
2023-02-24T16:28:27.662Z,20.03
2023-02-24T16:30:54.630Z,22.27
2023-02-24T16:33:24.267Z,20.93
2023-02-24T16:35:53.501Z,24.23
2023-02-24T16:38:21.493Z,23.20
2023-02-24T16:40:51.602Z,21.57
2023-02-24T16:43:18.395Z,20.03
2023-02-24T16:45:45.489Z,20.33
2023-02-24T16:48:23.183Z,24.87
2023-02-24T16:50:52.572Z,21.07
2023-02-24T16:53:20.826Z,22.13
2023-02-24T16:55:47.588Z,22.63
2023-02-24T16:58:14.582Z,20.67
2023-02-24T17:00:44.097Z,20.20
2023-02-24T17:03:18.753Z,25.87
2023-02-24T17:05:47.923Z,22.97
2023-02-24T17:08:19.952Z,22.07
2023-02-24T17:10:48.957Z,19.43
2023-02-24T17:13:20.064Z,21.97
2023-02-24T17:15:47.025Z,24.17
2023-02-24T17:18:16.304Z,21.47
2023-02-24T17:20:45.337Z,23.97
2023-02-24T17:23:14.614Z,22.23
2023-02-24T17:25:43.581Z,24.33
2023-02-24T17:28:10.901Z,23.47
2023-02-24T17:30:38.528Z,21.10
2023-02-24T17:33:05.339Z,23.87
2023-02-24T17:35:32.212Z,23.07
2023-02-24T17:37:59.042Z,24.67
2023-02-24T17:40:28.053Z,20.30
2023-02-24T17:42:54.813Z,20.30
2023-02-24T17:45:21.661Z,19.13
2023-02-24T17:47:52.729Z,20.17
2023-02-24T17:50:22.089Z,22.47
2023-02-24T17:52:49.008Z,21.87
2023-02-24T17:55:15.825Z,24.47
2023-02-24T17:57:43.337Z,21.60
2023-02-24T18:00:13.295Z,26.13
2023-02-24T18:02:40.587Z,33.03
2023-02-24T18:05:08.085Z,27.20
2023-02-24T18:07:40.616Z,24.53
2023-02-24T18:10:07.953Z,26.50
2023-02-24T18:12:34.739Z,24.23
2023-02-24T18:15:08.545Z,22.37
2023-02-24T18:17:36.895Z,24.53
2023-02-24T18:20:04.792Z,26.90
2023-02-24T18:22:34.166Z,19.17
2023-02-24T18:25:01.192Z,26.63
2023-02-24T18:27:30.140Z,17.17
2023-02-24T18:29:59.139Z,23.97
2023-02-24T18:32:26.085Z,24.87
2023-02-24T18:34:55.521Z,21.63
2023-02-24T18:37:22.295Z,21.63
2023-02-24T18:39:49.053Z,19.67
2023-02-24T18:42:18.148Z,24.27
2023-02-24T18:44:47.056Z,29.27
2023-02-24T18:47:13.809Z,24.07
2023-02-24T18:49:42.864Z,20.47
2023-02-24T18:52:14.032Z,28.07
2023-02-24T18:54:42.991Z,23.50
2023-02-24T18:57:09.777Z,23.13
2023-02-24T18:59:36.535Z,25.47
2023-02-24T19:02:05.588Z,23.10
2023-02-24T19:04:32.650Z,28.53
2023-02-24T19:06:59.392Z,22.50
2023-02-24T19:09:26.142Z,27.20
2023-02-24T19:11:54.212Z,36.43
2023-02-24T19:14:25.741Z,31.33
2023-02-24T19:16:52.512Z,27.23
2023-02-24T19:19:22.802Z,24.93
2023-02-24T19:21:49.804Z,26.77
2023-02-24T19:24:19.562Z,32.57
2023-02-24T19:26:51.269Z,28.77
2023-02-24T19:29:21.321Z,33.57
2023-02-24T19:31:53.913Z,25.27
2023-02-24T19:34:23.390Z,37.83
2023-02-24T19:36:50.291Z,27.10
2023-02-24T19:39:19.490Z,37.57
2023-02-24T19:41:48.527Z,35.13
2023-02-24T19:44:16.325Z,37.63
2023-02-24T19:46:43.343Z,33.43
2023-02-24T19:49:10.182Z,34.43
2023-02-24T19:51:37.060Z,37.70
2023-02-24T19:54:10.712Z,40.30
2023-02-24T19:56:37.684Z,38.87
2023-02-24T19:59:08.347Z,36.67
2023-02-24T20:01:37.850Z,39.77
2023-02-24T20:04:05.027Z,46.43
2023-02-24T20:06:36.776Z,42.43
2023-02-24T20:09:15.448Z,33.83
2023-02-24T20:11:43.132Z,42.57
2023-02-24T20:14:10.534Z,34.83
2023-02-24T20:16:38.362Z,35.50
2023-02-24T20:19:06.073Z,40.67
2023-02-24T20:21:35.286Z,40.90
2023-02-24T20:24:03.500Z,38.60
2023-02-24T20:26:30.337Z,37.10
2023-02-24T20:28:57.142Z,41.43
2023-02-24T20:31:24.136Z,41.10
2023-02-24T20:33:51.161Z,38.53
2023-02-24T20:36:22.968Z,44.07
2023-02-24T20:38:50.184Z,38.77
2023-02-24T20:41:17.594Z,42.33
2023-02-24T20:43:44.637Z,42.47
2023-02-24T20:46:26.100Z,42.03
2023-02-24T20:48:57.233Z,40.20
2023-02-24T20:51:24.263Z,39.90
2023-02-24T20:53:57.806Z,42.30
2023-02-24T20:56:28.748Z,39.87
2023-02-24T20:59:02.968Z,38.40
2023-02-24T21:01:30.586Z,41.43
2023-02-24T21:03:57.572Z,44.53
2023-02-24T21:06:24.748Z,42.30
2023-02-24T21:08:54.404Z,45.50
2023-02-24T21:11:21.317Z,36.67
2023-02-24T21:13:49.075Z,38.17
2023-02-24T21:16:16.310Z,35.93
2023-02-24T21:18:44.370Z,39.20
2023-02-24T21:21:11.554Z,37.43
2023-02-24T21:23:43.150Z,30.53
2023-02-24T21:26:10.104Z,31.53
2023-02-24T21:28:37.037Z,34.87
2023-02-24T21:31:13.408Z,32.73
2023-02-24T21:33:40.386Z,31.57
2023-02-24T21:36:13.277Z,32.60
2023-02-24T21:38:41.399Z,33.33
2023-02-24T21:41:09.559Z,38.53
2023-02-24T21:43:37.865Z,32.00
2023-02-24T21:46:11.454Z,32.30
2023-02-24T21:48:38.853Z,34.27
2023-02-24T21:51:07.104Z,39.53
2023-02-24T21:53:39.107Z,38.07
2023-02-24T21:56:11.040Z,35.63
2023-02-24T21:58:38.950Z,36.17
2023-02-24T22:01:13.429Z,33.87
2023-02-24T22:03:42.626Z,35.37
2023-02-24T22:06:10.780Z,40.87
2023-02-24T22:08:43.067Z,33.47
2023-02-24T22:11:24.094Z,36.20
2023-02-24T22:13:50.918Z,38.40
2023-02-24T22:16:22.154Z,36.00
2023-02-24T22:18:49.326Z,37.93
2023-02-24T22:21:20.072Z,39.60
2023-02-24T22:23:47.712Z,44.83
2023-02-24T22:26:14.894Z,45.00
2023-02-24T22:28:42.090Z,48.00
2023-02-24T22:31:09.904Z,46.43
2023-02-24T22:33:37.634Z,47.53
2023-02-24T22:36:05.733Z,47.77
2023-02-24T22:38:35.651Z,45.17
2023-02-24T22:41:04.622Z,50.57
2023-02-24T22:43:31.450Z,51.37
2023-02-24T22:45:58.971Z,44.27
2023-02-24T22:48:26.719Z,45.73
2023-02-24T22:50:57.266Z,48.30
2023-02-24T22:53:29.067Z,51.97
2023-02-24T22:55:56.883Z,44.37
2023-02-24T22:58:26.214Z,44.23
2023-02-24T23:00:55.814Z,46.20
2023-02-24T23:03:27.180Z,42.30
2023-02-24T23:06:00.456Z,39.50
2023-02-24T23:08:31.495Z,40.13
2023-02-24T23:11:19.920Z,39.00
2023-02-24T23:13:50.760Z,38.20
2023-02-24T23:16:22.498Z,39.33
2023-02-24T23:18:50.946Z,38.17
2023-02-24T23:21:22.281Z,36.50
2023-02-24T23:23:53.523Z,39.70
2023-02-24T23:26:20.909Z,37.57
2023-02-24T23:28:50.360Z,36.17
2023-02-24T23:31:22.475Z,39.20
2023-02-24T23:33:51.805Z,43.77
2023-02-24T23:36:18.735Z,42.07
2023-02-24T23:38:45.661Z,41.70
2023-02-24T23:41:17.635Z,35.67
2023-02-24T23:43:51.368Z,33.47
2023-02-24T23:46:18.231Z,34.60
2023-02-24T23:48:45.836Z,31.07
2023-02-24T23:51:13.325Z,33.70
2023-02-24T23:53:41.386Z,36.00
2023-02-24T23:56:09.447Z,42.17
2023-02-24T23:58:37.407Z,34.10
